sensor_id;sensor_type;location;lat;lon;timestamp;pressure;altitude;pressure_sealevel;temperature;humidity
39141;BME280;24875;48.436;10.298;2023-04-28T00:00:31;96210.63;;;10.12;100.00
39141;BME280;24875;48.436;10.298;2023-04-28T00:02:58;96202.28;;;10.31;99.27
39141;BME280;24875;48.436;10.298;2023-04-28T00:05:24;96199.28;;;10.34;98.74
39141;BME280;24875;48.436;10.298;2023-04-28T00:07:51;96193.47;;;10.38;98.20
39141;BME280;24875;48.436;10.298;2023-04-28T00:10:17;96198.41;;;10.41;98.41
39141;BME280;24875;48.436;10.298;2023-04-28T00:12:44;96200.91;;;10.35;99.26
39141;BME280;24875;48.436;10.298;2023-04-28T00:15:11;96196.56;;;10.42;99.49
39141;BME280;24875;48.436;10.298;2023-04-28T00:17:38;96191.31;;;10.42;100.00
39141;BME280;24875;48.436;10.298;2023-04-28T00:20:06;96176.97;;;10.44;100.00
39141;BME280;24875;48.436;10.298;2023-04-28T00:22:32;96166.97;;;10.40;100.00
39141;BME280;24875;48.436;10.298;2023-04-28T00:24:59;96165.53;;;10.30;100.00
39141;BME280;24875;48.436;10.298;2023-04-28T00:27:25;96150.66;;;10.22;100.00
39141;BME280;24875;48.436;10.298;2023-04-28T00:29:52;96147.06;;;10.15;100.00
39141;BME280;24875;48.436;10.298;2023-04-28T00:32:20;96149.66;;;10.01;100.00
39141;BME280;24875;48.436;10.298;2023-04-28T00:34:47;96145.13;;;10.09;100.00
39141;BME280;24875;48.436;10.298;2023-04-28T00:37:13;96136.66;;;10.22;100.00
39141;BME280;24875;48.436;10.298;2023-04-28T00:39:39;96133.84;;;10.23;100.00
39141;BME280;24875;48.436;10.298;2023-04-28T00:42:06;96130.91;;;10.18;100.00
39141;BME280;24875;48.436;10.298;2023-04-28T00:44:33;96135.28;;;10.26;100.00
39141;BME280;24875;48.436;10.298;2023-04-28T00:47:00;96131.16;;;10.31;100.00
39141;BME280;24875;48.436;10.298;2023-04-28T00:49:28;96138.97;;;10.39;100.00
39141;BME280;24875;48.436;10.298;2023-04-28T00:51:55;96139.31;;;10.36;100.00
39141;BME280;24875;48.436;10.298;2023-04-28T00:54:22;96136.06;;;10.34;100.00
39141;BME280;24875;48.436;10.298;2023-04-28T00:56:48;96135.34;;;10.40;100.00
39141;BME280;24875;48.436;10.298;2023-04-28T00:59:15;96139.19;;;10.52;100.00
39141;BME280;24875;48.436;10.298;2023-04-28T01:01:41;96138.09;;;10.46;100.00
39141;BME280;24875;48.436;10.298;2023-04-28T01:04:08;96140.63;;;10.40;100.00
39141;BME280;24875;48.436;10.298;2023-04-28T01:06:37;96127.28;;;10.56;100.00
39141;BME280;24875;48.436;10.298;2023-04-28T01:09:04;96126.72;;;10.46;100.00
39141;BME280;24875;48.436;10.298;2023-04-28T01:11:31;96128.66;;;10.52;100.00
39141;BME280;24875;48.436;10.298;2023-04-28T01:13:58;96128.38;;;10.47;100.00
39141;BME280;24875;48.436;10.298;2023-04-28T01:16:24;96123.47;;;10.58;100.00
39141;BME280;24875;48.436;10.298;2023-04-28T01:18:51;96121.84;;;10.57;100.00
39141;BME280;24875;48.436;10.298;2023-04-28T01:21:25;96111.22;;;10.65;100.00
39141;BME280;24875;48.436;10.298;2023-04-28T01:23:54;96117.41;;;10.58;100.00
39141;BME280;24875;48.436;10.298;2023-04-28T01:26:21;96117.03;;;10.61;100.00
39141;BME280;24875;48.436;10.298;2023-04-28T01:28:47;96122.50;;;10.59;100.00
39141;BME280;24875;48.436;10.298;2023-04-28T01:31:14;96120.94;;;10.65;100.00
39141;BME280;24875;48.436;10.298;2023-04-28T01:33:40;96107.78;;;10.65;100.00
39141;BME280;24875;48.436;10.298;2023-04-28T01:36:07;96096.56;;;10.34;100.00
39141;BME280;24875;48.436;10.298;2023-04-28T01:38:34;96096.94;;;10.45;100.00
39141;BME280;24875;48.436;10.298;2023-04-28T01:41:02;96093.97;;;10.63;100.00
39141;BME280;24875;48.436;10.298;2023-04-28T01:43:28;96106.22;;;10.56;100.00
39141;BME280;24875;48.436;10.298;2023-04-28T01:45:55;96098.31;;;10.56;100.00
39141;BME280;24875;48.436;10.298;2023-04-28T01:48:21;96092.84;;;10.57;100.00
39141;BME280;24875;48.436;10.298;2023-04-28T01:50:48;96084.16;;;10.57;100.00
39141;BME280;24875;48.436;10.298;2023-04-28T01:53:14;96081.41;;;10.65;100.00
39141;BME280;24875;48.436;10.298;2023-04-28T01:55:44;96085.41;;;10.61;100.00
39141;BME280;24875;48.436;10.298;2023-04-28T01:58:12;96084.06;;;10.65;100.00
39141;BME280;24875;48.436;10.298;2023-04-28T02:00:39;96084.06;;;10.65;100.00
39141;BME280;24875;48.436;10.298;2023-04-28T02:03:05;96081.69;;;10.70;100.00
39141;BME280;24875;48.436;10.298;2023-04-28T02:05:32;96084.16;;;10.57;100.00
39141;BME280;24875;48.436;10.298;2023-04-28T02:07:58;96081.78;;;10.62;100.00
39141;BME280;24875;48.436;10.298;2023-04-28T02:10:25;96089.50;;;10.63;100.00
39141;BME280;24875;48.436;10.298;2023-04-28T02:12:51;96094.59;;;10.65;100.00
39141;BME280;24875;48.436;10.298;2023-04-28T02:15:19;96086.06;;;10.77;100.00
39141;BME280;24875;48.436;10.298;2023-04-28T02:17:46;96079.44;;;10.67;100.00
39141;BME280;24875;48.436;10.298;2023-04-28T02:20:12;96085.13;;;10.70;100.00
39141;BME280;24875;48.436;10.298;2023-04-28T02:22:39;96083.88;;;10.66;100.00
39141;BME280;24875;48.436;10.298;2023-04-28T02:25:07;96079.81;;;10.78;100.00
39141;BME280;24875;48.436;10.298;2023-04-28T02:27:34;96085.78;;;10.72;100.00
39141;BME280;24875;48.436;10.298;2023-04-28T02:30:01;96069.88;;;10.80;100.00
39141;BME280;24875;48.436;10.298;2023-04-28T02:32:28;96077.75;;;10.94;100.00
39141;BME280;24875;48.436;10.298;2023-04-28T02:34:55;96079.88;;;10.99;100.00
39141;BME280;24875;48.436;10.298;2023-04-28T02:37:22;96082.41;;;10.93;100.00
39141;BME280;24875;48.436;10.298;2023-04-28T02:39:49;96076.44;;;10.98;100.00
39141;BME280;24875;48.436;10.298;2023-04-28T02:42:15;96080.50;;;10.87;100.00
39141;BME280;24875;48.436;10.298;2023-04-28T02:44:42;96079.97;;;10.91;100.00
39141;BME280;24875;48.436;10.298;2023-04-28T02:47:08;96087.97;;;10.97;100.00
39141;BME280;24875;48.436;10.298;2023-04-28T02:49:36;96099.78;;;11.01;100.00
39141;BME280;24875;48.436;10.298;2023-04-28T02:52:03;96096.22;;;10.94;100.00
39141;BME280;24875;48.436;10.298;2023-04-28T02:54:29;96099.16;;;10.85;100.00
39141;BME280;24875;48.436;10.298;2023-04-28T02:56:58;96086.16;;;10.84;100.00
39141;BME280;24875;48.436;10.298;2023-04-28T02:59:25;96082.16;;;10.88;100.00
39141;BME280;24875;48.436;10.298;2023-04-28T03:01:52;96069.97;;;10.87;100.00
39141;BME280;24875;48.436;10.298;2023-04-28T03:04:18;96062.25;;;10.71;100.00
39141;BME280;24875;48.436;10.298;2023-04-28T03:06:46;96061.69;;;10.61;100.00
39141;BME280;24875;48.436;10.298;2023-04-28T03:09:13;96064.16;;;10.62;100.00
39141;BME280;24875;48.436;10.298;2023-04-28T03:11:39;96062.31;;;10.48;100.00
39141;BME280;24875;48.436;10.298;2023-04-28T03:14:06;96062.88;;;10.58;100.00
39141;BME280;24875;48.436;10.298;2023-04-28T03:16:33;96063.97;;;10.64;100.00
39141;BME280;24875;48.436;10.298;2023-04-28T03:18:59;96053.00;;;10.60;100.00
39141;BME280;24875;48.436;10.298;2023-04-28T03:21:25;96041.34;;;10.55;100.00
39141;BME280;24875;48.436;10.298;2023-04-28T03:23:54;96037.44;;;10.51;100.00
39141;BME280;24875;48.436;10.298;2023-04-28T03:26:20;96033.63;;;10.53;100.00
39141;BME280;24875;48.436;10.298;2023-04-28T03:28:47;96044.91;;;10.62;100.00
39141;BME280;24875;48.436;10.298;2023-04-28T03:31:13;96046.25;;;10.72;100.00
39141;BME280;24875;48.436;10.298;2023-04-28T03:33:40;96048.69;;;10.74;100.00
39141;BME280;24875;48.436;10.298;2023-04-28T03:36:07;96053.97;;;10.74;100.00
39141;BME280;24875;48.436;10.298;2023-04-28T03:38:33;96050.97;;;10.77;100.00
39141;BME280;24875;48.436;10.298;2023-04-28T03:41:01;96048.53;;;10.90;100.00
39141;BME280;24875;48.436;10.298;2023-04-28T03:43:27;96049.06;;;10.85;100.00
39141;BME280;24875;48.436;10.298;2023-04-28T03:45:54;96047.22;;;10.86;100.00
39141;BME280;24875;48.436;10.298;2023-04-28T03:48:20;96052.06;;;10.82;100.00
39141;BME280;24875;48.436;10.298;2023-04-28T03:50:47;96052.34;;;10.87;100.00
39141;BME280;24875;48.436;10.298;2023-04-28T03:53:13;96049.72;;;10.87;100.00
39141;BME280;24875;48.436;10.298;2023-04-28T03:55:40;96046.50;;;10.92;100.00
39141;BME280;24875;48.436;10.298;2023-04-28T03:58:08;96047.78;;;10.95;100.00
39141;BME280;24875;48.436;10.298;2023-04-28T04:00:34;96049.59;;;10.66;100.00
39141;BME280;24875;48.436;10.298;2023-04-28T04:03:01;96046.88;;;10.60;100.00
39141;BME280;24875;48.436;10.298;2023-04-28T04:05:27;96049.78;;;10.65;100.00
39141;BME280;24875;48.436;10.298;2023-04-28T04:07:54;96045.16;;;10.38;100.00
39141;BME280;24875;48.436;10.298;2023-04-28T04:10:22;96046.69;;;10.47;100.00
39141;BME280;24875;48.436;10.298;2023-04-28T04:12:48;96038.69;;;10.55;100.00
39141;BME280;24875;48.436;10.298;2023-04-28T04:15:16;96045.06;;;10.75;100.00
39141;BME280;24875;48.436;10.298;2023-04-28T04:17:42;96061.16;;;10.80;100.00
39141;BME280;24875;48.436;10.298;2023-04-28T04:20:09;96064.34;;;10.90;100.00
39141;BME280;24875;48.436;10.298;2023-04-28T04:22:36;96064.34;;;10.90;100.00
39141;BME280;24875;48.436;10.298;2023-04-28T04:25:03;96066.41;;;10.94;100.00
39141;BME280;24875;48.436;10.298;2023-04-28T04:27:29;96061.53;;;10.91;100.00
39141;BME280;24875;48.436;10.298;2023-04-28T04:29:56;96055.50;;;10.97;100.00
39141;BME280;24875;48.436;10.298;2023-04-28T04:32:24;96042.03;;;11.06;100.00
39141;BME280;24875;48.436;10.298;2023-04-28T04:34:50;96046.13;;;11.09;100.00
39141;BME280;24875;48.436;10.298;2023-04-28T04:37:17;96045.69;;;11.05;100.00
39141;BME280;24875;48.436;10.298;2023-04-28T04:39:43;96037.97;;;11.04;100.00
39141;BME280;24875;48.436;10.298;2023-04-28T04:42:10;96033.59;;;10.96;100.00
39141;BME280;24875;48.436;10.298;2023-04-28T04:44:36;96034.88;;;11.00;100.00
39141;BME280;24875;48.436;10.298;2023-04-28T04:47:02;96044.53;;;10.93;100.00
39141;BME280;24875;48.436;10.298;2023-04-28T04:49:30;96056.94;;;10.99;100.00
39141;BME280;24875;48.436;10.298;2023-04-28T04:51:57;96055.56;;;11.03;100.00
39141;BME280;24875;48.436;10.298;2023-04-28T04:54:23;96050.03;;;11.13;100.00
39141;BME280;24875;48.436;10.298;2023-04-28T04:56:50;96051.47;;;11.15;100.00
39141;BME280;24875;48.436;10.298;2023-04-28T04:59:16;96050.72;;;11.21;100.00
39141;BME280;24875;48.436;10.298;2023-04-28T05:01:43;96052.47;;;11.14;100.00
39141;BME280;24875;48.436;10.298;2023-04-28T05:04:09;96051.28;;;11.17;100.00
39141;BME280;24875;48.436;10.298;2023-04-28T05:06:37;96058.75;;;11.28;100.00
39141;BME280;24875;48.436;10.298;2023-04-28T05:09:03;96058.28;;;11.24;100.00
39141;BME280;24875;48.436;10.298;2023-04-28T05:11:30;96042.91;;;11.28;100.00
39141;BME280;24875;48.436;10.298;2023-04-28T05:13:56;96040.69;;;11.31;100.00
39141;BME280;24875;48.436;10.298;2023-04-28T05:16:23;96045.72;;;11.26;100.00
39141;BME280;24875;48.436;10.298;2023-04-28T05:18:49;96045.38;;;11.29;100.00
39141;BME280;24875;48.436;10.298;2023-04-28T05:21:15;96046.34;;;11.28;100.00
39141;BME280;24875;48.436;10.298;2023-04-28T05:23:43;96042.47;;;11.24;100.00
39141;BME280;24875;48.436;10.298;2023-04-28T05:26:10;96047.28;;;11.21;100.00
39141;BME280;24875;48.436;10.298;2023-04-28T05:28:38;96046.75;;;11.46;100.00
39141;BME280;24875;48.436;10.298;2023-04-28T05:31:04;96044.13;;;11.46;100.00
39141;BME280;24875;48.436;10.298;2023-04-28T05:33:31;96042.03;;;11.56;100.00
39141;BME280;24875;48.436;10.298;2023-04-28T05:35:57;96038.41;;;11.57;100.00
39141;BME280;24875;48.436;10.298;2023-04-28T05:38:24;96048.31;;;11.55;100.00
39141;BME280;24875;48.436;10.298;2023-04-28T05:40:53;96048.06;;;11.71;100.00
39141;BME280;24875;48.436;10.298;2023-04-28T05:43:19;96037.88;;;11.68;100.00
39141;BME280;24875;48.436;10.298;2023-04-28T05:45:46;96031.53;;;11.62;100.00
39141;BME280;24875;48.436;10.298;2023-04-28T05:48:12;96023.09;;;11.73;100.00
39141;BME280;24875;48.436;10.298;2023-04-28T05:50:39;96027.25;;;11.61;100.00
39141;BME280;24875;48.436;10.298;2023-04-28T05:53:06;96028.16;;;11.68;100.00
39141;BME280;24875;48.436;10.298;2023-04-28T05:55:32;96034.84;;;11.71;100.00
39141;BME280;24875;48.436;10.298;2023-04-28T05:58:02;96027.03;;;11.77;100.00
39141;BME280;24875;48.436;10.298;2023-04-28T06:00:28;96032.13;;;11.79;100.00
39141;BME280;24875;48.436;10.298;2023-04-28T06:02:55;96025.63;;;11.81;100.00
39141;BME280;24875;48.436;10.298;2023-04-28T06:05:22;96014.53;;;11.92;100.00
39141;BME280;24875;48.436;10.298;2023-04-28T06:07:48;96015.63;;;11.98;100.00
39141;BME280;24875;48.436;10.298;2023-04-28T06:10:15;96025.34;;;11.97;100.00
39141;BME280;24875;48.436;10.298;2023-04-28T06:12:41;96020.41;;;11.88;100.00
39141;BME280;24875;48.436;10.298;2023-04-28T06:15:10;96026.84;;;12.06;100.00
39141;BME280;24875;48.436;10.298;2023-04-28T06:17:37;96037.63;;;12.05;100.00
39141;BME280;24875;48.436;10.298;2023-04-28T06:20:05;96033.72;;;12.01;100.00
39141;BME280;24875;48.436;10.298;2023-04-28T06:22:31;96048.25;;;11.90;100.00
39141;BME280;24875;48.436;10.298;2023-04-28T06:24:58;96048.25;;;11.90;100.00
39141;BME280;24875;48.436;10.298;2023-04-28T06:27:24;96058.06;;;11.75;100.00
39141;BME280;24875;48.436;10.298;2023-04-28T06:29:51;96061.97;;;11.79;100.00
39141;BME280;24875;48.436;10.298;2023-04-28T06:32:19;96055.69;;;11.80;100.00
39141;BME280;24875;48.436;10.298;2023-04-28T06:34:45;96067.44;;;11.78;100.00
39141;BME280;24875;48.436;10.298;2023-04-28T06:37:12;96078.44;;;11.81;100.00
39141;BME280;24875;48.436;10.298;2023-04-28T06:39:38;96077.47;;;11.68;100.00
39141;BME280;24875;48.436;10.298;2023-04-28T06:42:04;96047.81;;;11.66;100.00
39141;BME280;24875;48.436;10.298;2023-04-28T06:44:31;96017.88;;;11.80;100.00
39141;BME280;24875;48.436;10.298;2023-04-28T06:46:58;96014.78;;;11.70;100.00
39141;BME280;24875;48.436;10.298;2023-04-28T06:49:26;96014.13;;;11.68;100.00
39141;BME280;24875;48.436;10.298;2023-04-28T06:51:52;96021.03;;;11.69;100.00
39141;BME280;24875;48.436;10.298;2023-04-28T06:54:19;96010.78;;;11.59;100.00
39141;BME280;24875;48.436;10.298;2023-04-28T06:56:45;96010.78;;;11.59;100.00
39141;BME280;24875;48.436;10.298;2023-04-28T06:59:12;96014.38;;;11.73;100.00
39141;BME280;24875;48.436;10.298;2023-04-28T07:01:38;96006.13;;;11.82;100.00
39141;BME280;24875;48.436;10.298;2023-04-28T07:04:04;95998.78;;;11.78;100.00
39141;BME280;24875;48.436;10.298;2023-04-28T07:06:32;95994.00;;;11.88;100.00
39141;BME280;24875;48.436;10.298;2023-04-28T07:08:59;96000.50;;;11.85;100.00
39141;BME280;24875;48.436;10.298;2023-04-28T07:11:25;96003.69;;;12.02;100.00
39141;BME280;24875;48.436;10.298;2023-04-28T07:13:52;95998.56;;;12.00;100.00
39141;BME280;24875;48.436;10.298;2023-04-28T07:16:18;95992.31;;;12.08;100.00
39141;BME280;24875;48.436;10.298;2023-04-28T07:18:45;95989.41;;;12.23;100.00
39141;BME280;24875;48.436;10.298;2023-04-28T07:21:12;95988.25;;;12.32;100.00
39141;BME280;24875;48.436;10.298;2023-04-28T07:23:39;95993.56;;;12.39;100.00
39141;BME280;24875;48.436;10.298;2023-04-28T07:26:07;95992.13;;;12.36;100.00
39141;BME280;24875;48.436;10.298;2023-04-28T07:28:34;95986.75;;;12.57;100.00
39141;BME280;24875;48.436;10.298;2023-04-28T07:31:00;95989.06;;;12.67;100.00
39141;BME280;24875;48.436;10.298;2023-04-28T07:33:27;95982.59;;;12.69;100.00
39141;BME280;24875;48.436;10.298;2023-04-28T07:35:53;95983.13;;;12.58;100.00
39141;BME280;24875;48.436;10.298;2023-04-28T07:38:20;95979.00;;;12.49;100.00
39141;BME280;24875;48.436;10.298;2023-04-28T07:40:48;95982.25;;;12.45;100.00
39141;BME280;24875;48.436;10.298;2023-04-28T07:43:14;95972.88;;;12.42;100.00
39141;BME280;24875;48.436;10.298;2023-04-28T07:45:41;95974.19;;;12.59;100.00
39141;BME280;24875;48.436;10.298;2023-04-28T07:48:09;95972.47;;;12.45;100.00
39141;BME280;24875;48.436;10.298;2023-04-28T07:50:36;95970.53;;;12.60;100.00
39141;BME280;24875;48.436;10.298;2023-04-28T07:53:02;95962.03;;;12.71;100.00
39141;BME280;24875;48.436;10.298;2023-04-28T07:55:29;95957.72;;;12.64;100.00
39141;BME280;24875;48.436;10.298;2023-04-28T07:57:57;95959.00;;;12.74;100.00
39141;BME280;24875;48.436;10.298;2023-04-28T08:00:24;95955.00;;;12.84;100.00
39141;BME280;24875;48.436;10.298;2023-04-28T08:02:50;95967.66;;;12.55;100.00
39141;BME280;24875;48.436;10.298;2023-04-28T08:05:17;95961.59;;;12.68;100.00
39141;BME280;24875;48.436;10.298;2023-04-28T08:07:43;95964.03;;;12.63;100.00
39141;BME280;24875;48.436;10.298;2023-04-28T08:10:10;95957.13;;;12.62;100.00
39141;BME280;24875;48.436;10.298;2023-04-28T08:12:37;95953.56;;;12.82;100.00
39141;BME280;24875;48.436;10.298;2023-04-28T08:15:07;95953.25;;;13.04;100.00
39141;BME280;24875;48.436;10.298;2023-04-28T08:17:34;95957.94;;;13.02;100.00
39141;BME280;24875;48.436;10.298;2023-04-28T08:20:01;95947.97;;;13.11;100.00
39141;BME280;24875;48.436;10.298;2023-04-28T08:22:27;95951.84;;;13.15;100.00
39141;BME280;24875;48.436;10.298;2023-04-28T08:24:53;95949.97;;;12.96;100.00
39141;BME280;24875;48.436;10.298;2023-04-28T08:27:20;95958.28;;;12.93;100.00
39141;BME280;24875;48.436;10.298;2023-04-28T08:29:48;95951.28;;;12.79;100.00
39141;BME280;24875;48.436;10.298;2023-04-28T08:32:15;95956.69;;;12.92;100.00
39141;BME280;24875;48.436;10.298;2023-04-28T08:34:42;95949.16;;;12.95;100.00
39141;BME280;24875;48.436;10.298;2023-04-28T08:37:08;95944.13;;;13.20;100.00
39141;BME280;24875;48.436;10.298;2023-04-28T08:39:35;95944.28;;;12.99;100.00
39141;BME280;24875;48.436;10.298;2023-04-28T08:42:02;95941.44;;;13.07;100.00
39141;BME280;24875;48.436;10.298;2023-04-28T08:44:33;95947.59;;;13.20;100.00
39141;BME280;24875;48.436;10.298;2023-04-28T08:47:03;95949.03;;;13.23;100.00
39141;BME280;24875;48.436;10.298;2023-04-28T08:49:33;95952.09;;;13.33;100.00
39141;BME280;24875;48.436;10.298;2023-04-28T08:52:00;95944.34;;;13.25;100.00
39141;BME280;24875;48.436;10.298;2023-04-28T08:54:30;95944.34;;;13.25;100.00
39141;BME280;24875;48.436;10.298;2023-04-28T08:56:57;95955.75;;;13.19;100.00
39141;BME280;24875;48.436;10.298;2023-04-28T08:59:23;95944.94;;;13.14;100.00
39141;BME280;24875;48.436;10.298;2023-04-28T09:01:50;95946.31;;;13.03;100.00
39141;BME280;24875;48.436;10.298;2023-04-28T09:04:17;95947.13;;;12.97;100.00
39141;BME280;24875;48.436;10.298;2023-04-28T09:06:45;95950.84;;;13.16;100.00
39141;BME280;24875;48.436;10.298;2023-04-28T09:09:19;95951.28;;;13.26;100.00
39141;BME280;24875;48.436;10.298;2023-04-28T09:11:50;95952.50;;;13.30;100.00
39141;BME280;24875;48.436;10.298;2023-04-28T09:14:17;95958.16;;;13.07;100.00
39141;BME280;24875;48.436;10.298;2023-04-28T09:16:43;95958.75;;;13.03;100.00
39141;BME280;24875;48.436;10.298;2023-04-28T09:19:10;95965.84;;;12.96;100.00
39141;BME280;24875;48.436;10.298;2023-04-28T09:21:49;95961.63;;;13.14;100.00
39141;BME280;24875;48.436;10.298;2023-04-28T09:24:27;95970.00;;;13.24;100.00
39141;BME280;24875;48.436;10.298;2023-04-28T09:26:54;95967.13;;;13.13;100.00
39141;BME280;24875;48.436;10.298;2023-04-28T09:29:21;95964.25;;;13.08;100.00
39141;BME280;24875;48.436;10.298;2023-04-28T09:31:48;95963.06;;;13.17;100.00
39141;BME280;24875;48.436;10.298;2023-04-28T09:34:14;95963.06;;;13.17;100.00
39141;BME280;24875;48.436;10.298;2023-04-28T09:36:41;95960.81;;;13.14;100.00
39141;BME280;24875;48.436;10.298;2023-04-28T09:39:08;95961.88;;;13.26;100.00
39141;BME280;24875;48.436;10.298;2023-04-28T09:41:37;95971.66;;;13.32;100.00
39141;BME280;24875;48.436;10.298;2023-04-28T09:44:15;95972.63;;;13.18;100.00
39141;BME280;24875;48.436;10.298;2023-04-28T09:46:43;95964.91;;;13.16;100.00
39141;BME280;24875;48.436;10.298;2023-04-28T09:49:11;95963.47;;;13.20;100.00
39141;BME280;24875;48.436;10.298;2023-04-28T09:51:38;95966.72;;;13.22;100.00
39141;BME280;24875;48.436;10.298;2023-04-28T09:54:05;95963.50;;;13.27;100.00
39141;BME280;24875;48.436;10.298;2023-04-28T09:56:34;95961.69;;;13.46;100.00
39141;BME280;24875;48.436;10.298;2023-04-28T09:59:02;95962.50;;;13.40;100.00
39141;BME280;24875;48.436;10.298;2023-04-28T10:01:33;95967.81;;;13.53;100.00
39141;BME280;24875;48.436;10.298;2023-04-28T10:04:03;95964.78;;;13.69;100.00
39141;BME280;24875;48.436;10.298;2023-04-28T10:06:29;95969.28;;;13.62;100.00
39141;BME280;24875;48.436;10.298;2023-04-28T10:08:58;95963.97;;;13.75;100.00
39141;BME280;24875;48.436;10.298;2023-04-28T10:11:25;95967.03;;;13.92;100.00
39141;BME280;24875;48.436;10.298;2023-04-28T10:13:53;95966.03;;;13.80;100.00
39141;BME280;24875;48.436;10.298;2023-04-28T10:16:21;95970.28;;;13.74;100.00
39141;BME280;24875;48.436;10.298;2023-04-28T10:18:48;95971.31;;;13.73;100.00
39141;BME280;24875;48.436;10.298;2023-04-28T10:21:17;95969.91;;;13.90;100.00
39141;BME280;24875;48.436;10.298;2023-04-28T10:26:57;95973.78;;;14.00;100.00
39141;BME280;24875;48.436;10.298;2023-04-28T10:29:29;95963.78;;;14.09;100.00
39141;BME280;24875;48.436;10.298;2023-04-28T10:32:15;95961.75;;;14.24;100.00
39141;BME280;24875;48.436;10.298;2023-04-28T10:34:42;95966.06;;;14.12;100.00
39141;BME280;24875;48.436;10.298;2023-04-28T10:37:09;95969.13;;;14.15;100.00
39141;BME280;24875;48.436;10.298;2023-04-28T10:39:35;95962.34;;;14.39;100.00
39141;BME280;24875;48.436;10.298;2023-04-28T10:42:02;95976.19;;;14.41;100.00
39141;BME280;24875;48.436;10.298;2023-04-28T10:44:48;95970.50;;;14.44;100.00
39141;BME280;24875;48.436;10.298;2023-04-28T10:47:14;95966.00;;;14.51;100.00
39141;BME280;24875;48.436;10.298;2023-04-28T10:50:03;95958.59;;;14.72;100.00
39141;BME280;24875;48.436;10.298;2023-04-28T10:52:49;95961.00;;;14.80;100.00
39141;BME280;24875;48.436;10.298;2023-04-28T10:55:26;95963.25;;;14.76;100.00
39141;BME280;24875;48.436;10.298;2023-04-28T11:01:25;95962.91;;;14.66;100.00
39141;BME280;24875;48.436;10.298;2023-04-28T11:03:53;95968.16;;;14.86;100.00
39141;BME280;24875;48.436;10.298;2023-04-28T11:06:25;95973.72;;;14.71;100.00
39141;BME280;24875;48.436;10.298;2023-04-28T11:08:53;95961.88;;;14.74;100.00
39141;BME280;24875;48.436;10.298;2023-04-28T11:11:22;95969.97;;;14.85;100.00
39141;BME280;24875;48.436;10.298;2023-04-28T11:13:51;95968.53;;;14.96;100.00
39141;BME280;24875;48.436;10.298;2023-04-28T11:16:21;95969.66;;;15.13;100.00
39141;BME280;24875;48.436;10.298;2023-04-28T11:21:31;95964.81;;;15.47;100.00
39141;BME280;24875;48.436;10.298;2023-04-28T11:23:58;95956.72;;;15.66;100.00
39141;BME280;24875;48.436;10.298;2023-04-28T11:26:26;95959.25;;;15.85;100.00
39141;BME280;24875;48.436;10.298;2023-04-28T11:28:54;95951.28;;;16.10;100.00
39141;BME280;24875;48.436;10.298;2023-04-28T11:31:23;95952.22;;;16.22;100.00
39141;BME280;24875;48.436;10.298;2023-04-28T11:33:53;95957.22;;;16.36;100.00
39141;BME280;24875;48.436;10.298;2023-04-28T11:36:31;95953.75;;;16.05;100.00
39141;BME280;24875;48.436;10.298;2023-04-28T11:38:59;95960.72;;;16.06;100.00
39141;BME280;24875;48.436;10.298;2023-04-28T11:41:26;95956.31;;;15.93;100.00
39141;BME280;24875;48.436;10.298;2023-04-28T11:43:52;95958.75;;;15.71;100.00
39141;BME280;24875;48.436;10.298;2023-04-28T11:46:20;95968.09;;;15.73;100.00
39141;BME280;24875;48.436;10.298;2023-04-28T11:48:58;95967.00;;;16.11;100.00
39141;BME280;24875;48.436;10.298;2023-04-28T11:51:34;95967.69;;;16.31;100.00
39141;BME280;24875;48.436;10.298;2023-04-28T11:54:02;95965.13;;;16.18;100.00
39141;BME280;24875;48.436;10.298;2023-04-28T11:56:29;95966.22;;;16.35;100.00
39141;BME280;24875;48.436;10.298;2023-04-28T11:59:04;95965.34;;;16.17;100.00
39141;BME280;24875;48.436;10.298;2023-04-28T12:01:32;95954.25;;;16.20;100.00
39141;BME280;24875;48.436;10.298;2023-04-28T12:04:03;95965.78;;;16.38;100.00
39141;BME280;24875;48.436;10.298;2023-04-28T12:06:29;95964.25;;;16.48;100.00
39141;BME280;24875;48.436;10.298;2023-04-28T12:08:56;95963.38;;;16.30;100.00
39141;BME280;24875;48.436;10.298;2023-04-28T12:11:28;95976.59;;;16.12;100.00
39141;BME280;24875;48.436;10.298;2023-04-28T12:14:05;95972.03;;;16.26;100.00
39141;BME280;24875;48.436;10.298;2023-04-28T12:16:37;95965.06;;;16.67;100.00
39141;BME280;24875;48.436;10.298;2023-04-28T12:19:09;95967.88;;;17.08;100.00
39141;BME280;24875;48.436;10.298;2023-04-28T12:21:37;95967.16;;;17.36;100.00
39141;BME280;24875;48.436;10.298;2023-04-28T12:24:18;95963.72;;;17.47;100.00
39141;BME280;24875;48.436;10.298;2023-04-28T12:26:45;95968.69;;;17.44;100.00
39141;BME280;24875;48.436;10.298;2023-04-28T12:29:34;95969.22;;;17.34;100.00
39141;BME280;24875;48.436;10.298;2023-04-28T12:32:01;95969.91;;;17.12;100.00
39141;BME280;24875;48.436;10.298;2023-04-28T12:34:29;95968.34;;;17.05;100.00
39141;BME280;24875;48.436;10.298;2023-04-28T12:36:55;95979.25;;;16.61;100.00
39141;BME280;24875;48.436;10.298;2023-04-28T12:39:21;95977.00;;;16.40;100.00
39141;BME280;24875;48.436;10.298;2023-04-28T12:41:49;95980.31;;;16.60;100.00
39141;BME280;24875;48.436;10.298;2023-04-28T12:44:15;95983.69;;;16.49;100.00
39141;BME280;24875;48.436;10.298;2023-04-28T12:46:41;95976.66;;;16.54;100.00
39141;BME280;24875;48.436;10.298;2023-04-28T12:49:08;95977.03;;;16.58;100.00
39141;BME280;24875;48.436;10.298;2023-04-28T12:51:36;95980.16;;;16.73;100.00